Weather observations for the past three days for
Marquette Sawyer Regional Airport
Metric (Imperial)
Date Time (edt) Wind (kph) Vis. (km) Weather Sky Cond. Temperature (ºC) Relative Humidity Wind Chill (°C) Heat Index (°C) Pressure Precipitation (cm)
Air Dwpt 6 hour altimeter (cm) sea level (mb) 1 hr 3 hr 6 hr
Max. Min.
04 10:45 SW 26 G 43 16.09 Light Rain SCT075 BKN095 OVC110 15 3 45% 74.27 0.0
04 09:45 S 26 16.09 Mostly Cloudy BKN100 14 2 44% 74.32 0.0
04 08:45 S 28 16.09 Fair CLR 9 4 71% 6 74.42 0.0
04 07:45 S 26 16.09 Fair CLR 8 4 76% 5 74.55 0.0
04 06:45 S 22 16.09 Fair CLR 6 4 87% 2 74.63 0.0
04 05:58 S 22 16.09 Fair CLR 6 4 87% 2 74.7 0.0
04 05:38 S 17 16.09 Fair CLR 5 3 87% 2 74.73 0.0
04 05:18 S 17 16.09 Fair CLR 5 4 93% 2 74.75 0.0
04 04:58 S 17 16.09 Fair CLR 5 3 87% 2 74.8 0.0
04 04:38 S 17 16.09 Fair CLR 5 3 87% 2 74.83 0.0
04 04:18 S 17 16.09 Fair CLR 4 3 93% 1 74.85 0.0
04 03:58 S 15 16.09 Fair CLR 4 3 93% 1 74.85 0.0
04 03:38 S 17 16.09 Fair CLR 5 3 87% 2 74.88 0.0
04 03:18 S 17 16.09 Fair CLR 5 3 87% 2 74.9 0.0
04 02:58 S 13 16.09 Fair CLR 4 3 93% 1 74.93 0.0
04 02:38 S 13 16.09 Fair CLR 5 3 87% 2 74.96 0.0
04 02:18 S 11 16.09 Fair CLR 5 3 87% 3 74.98 0.0
04 01:58 S 15 16.09 Fair CLR 5 2 81% 2 75.01 0.0
04 01:38 S 13 16.09 Fair CLR 5 2 81% 2 75.03 0.0
04 01:18 S 13 16.09 Fair CLR 5 2 81% 2 75.03 0.0
04 00:58 S 13 16.09 Fair CLR 5 2 81% 2 75.06 0.0
04 00:38 S 6 16.09 Fair CLR 6 3 81% 75.08 0.0
04 00:18 S 7 16.09 Fair CLR 6 3 81% 5 75.08 0.0
03 23:58 S 6 16.09 Fair CLR 7 3 76% 75.11 0.0
03 23:38 S 9 16.09 Fair CLR 7 3 76% 5 75.11 0.0
03 23:18 S 6 16.09 Fair CLR 7 3 76% 75.13 0.0
03 22:58 S 6 16.09 Fair CLR 7 4 81% 75.13 0.0
03 22:38 S 7 16.09 Fair CLR 8 3 71% 7 75.16 0.0
03 22:18 S 6 16.09 Fair CLR 8 4 76% 75.16 0.0
03 21:47 S 7 16.09 Fair CLR 8 3 71% 7 75.16 0.0
03 20:47 NE 7 16.09 Fair CLR 11 3 58% 75.16 0.0
03 19:47 NE 17 16.09 Fair CLR 13 4 55% 75.11 0.0
03 18:47 NE 28 16.09 Fair CLR 14 4 51% 75.08 0.0
03 17:47 NE 31 16.09 Partly Cloudy SCT100 15 4 48% 75.06 0.0
03 16:47 E 20 16.09 Mostly Cloudy FEW050 BKN100 15 6 55% 75.03 0.0
03 15:47 N 11 16.09 Thunderstorm in Vicinity SCT048 15 6 55% 75.03 0.0
03 14:47 W 24 G 37 16.09 Thunderstorm in Vicinity FEW065 SCT080 BKN110 17 3 39% 75.08 0.0
03 13:47 SW 19 16.09 Mostly Cloudy BKN065 16 3 42% 75.13 0.0
03 12:45 SW 15 16.09 Mostly Cloudy BKN100 16 5 48% 75.18 0.0
03 11:45 W 15 16.09 Mostly Cloudy SCT060 BKN100 14 5 55% 75.26 0.0
03 09:46 SW 11 16.09 Overcast BKN090 OVC110 7 4 81% 5 75.36 0.0
03 08:45 S 6 16.09 Overcast OVC110 3 2 93% 75.36 0.0
03 07:46 SW 6 16.09 Overcast OVC045 2 1 93% 75.39 0.0
03 06:45 SW 11 16.09 Overcast BKN049 OVC060 2 1 93% -1 75.44 0.0
03 05:58 SW 6 16.09 Light Rain NULL 2 1 93% 75.44 0.0
02 23:58 S 13 16.09 Mostly Cloudy BKN080 3 -2 70% 0 75.77 0.0
02 23:38 S 13 16.09 A Few Clouds FEW080 3 -3 65% 0 75.77 0.0
02 23:18 S 13 16.09 Fair CLR 3 -2 70% 0 75.79 0.0
02 22:58 S 15 16.09 Fair CLR 3 -3 65% -0 75.82 0.0
02 22:38 S 11 16.09 Fair CLR 4 -2 65% 2 75.84 0.0
02 22:18 S 13 16.09 Fair CLR 4 -3 61% 1 75.87 0.0
02 21:47 SE 13 16.09 Fair CLR 5 -3 57% 2 75.87 0.0
02 20:47 E 9 16.09 Fair CLR 7 -8 34% 5 75.9 0.0
02 19:47 NE 15 16.09 Fair CLR 8 -8 32% 6 75.92 0.0
02 18:47 NE 19 16.09 Fair CLR 9 -8 29% 7 75.92 0.0
02 17:47 N 24 16.09 Fair CLR 10 -8 28% 7 75.92 0.0
02 16:47 NE 19 16.09 Fair CLR 10 -8 28% 8 75.95 0.0
02 15:47 NE 28 16.09 Fair CLR 11 -8 26% 75.97 0.0
02 14:46 NE 24 G 31 16.09 Fair CLR 11 -8 26% 76.05 0.0
02 13:46 NW 19 G 31 16.09 Partly Cloudy SCT065 10 -7 30% 8 76.07 0.0
02 12:46 W 9 G 35 16.09 A Few Clouds FEW065 9 -8 29% 8 76.15 0.0
02 11:46 NW 19 G 26 16.09 Fair CLR 8 -8 32% 5 76.2 0.0
02 10:46 NW 19 G 26 16.09 Fair CLR 6 -9 34% 3 76.23 0.0
02 09:46 NW 9 16.09 Fair CLR 4 -8 42% 2 76.28 0.0
02 08:46 W 4 16.09 Fair CLR 0 -5 69% 76.3 0.0
02 07:46 W 2 16.09 Fair CLR -4 -7 80% 76.3 0.0
02 06:46 W 6 16.09 Fair CLR -7 -8 93% 76.3 0.0
02 05:58 W 4 16.09 Fair CLR -6 -8 86% 76.3 0.0
02 05:38 W 2 16.09 Fair CLR -4 -7 80% 76.3 0.0
02 05:18 W 2 16.09 Fair CLR -5 -7 86% 76.28 0.0
02 04:58 Calm 16.09 Fair CLR -5 -7 86% 76.28 0.0
02 04:38 W 2 16.09 Fair CLR -4 -7 80% 76.28 0.0
02 04:18 W 6 16.09 Fair CLR -4 -7 80% 76.28 0.0
02 03:58 W 2 16.09 Fair CLR -4 -7 80% 76.28 0.0
02 03:38 W 4 16.09 Fair CLR -4 -7 80% 76.28 0.0
02 03:18 W 4 16.09 Fair CLR -4 -7 80% 76.28 0.0
02 02:58 W 4 16.09 Fair CLR -4 -7 80% 76.3 0.0
02 02:38 W 7 16.09 Fair CLR -4 -7 80% -7 76.3 0.0
02 02:18 W 6 16.09 Fair CLR -5 -7 86% 76.3 0.0
02 01:58 W 6 16.09 Fair CLR -4 -7 80% 76.3 0.0
02 01:38 W 6 16.09 Fair CLR -4 -7 80% 76.3 0.0
02 01:18 W 4 16.09 Fair CLR -4 -7 80% 76.33 0.0
02 00:58 NW 6 16.09 Fair CLR -3 -7 74% 76.33 0.0
02 00:38 W 6 16.09 Fair CLR -3 -7 74% 76.33 0.0
02 00:18 NW 4 16.09 Fair CLR -2 -7 69% 76.33 0.0
01 23:58 Calm 16.09 Fair CLR -3 -7 74% 76.33 0.0
01 23:38 NW 4 16.09 Fair CLR -3 -7 74% 76.33 0.0
01 23:18 NW 6 16.09 Fair CLR -2 -7 69% 76.33 0.0
01 22:58 NW 6 16.09 Fair CLR -2 -7 69% 76.33 0.0
01 22:38 W 4 16.09 Fair CLR -2 -7 69% 76.35 0.0
01 22:18 N 4 16.09 Fair CLR -1 -7 64% 76.35 0.0
01 21:47 N 7 16.09 Fair CLR -1 -8 59% -3 76.33 0.0
01 20:47 N 13 16.09 Fair CLR 2 -7 52% -1 76.33 0.0
01 19:47 NE 17 16.09 A Few Clouds FEW040 3 -7 48% -1 76.3 0.0
01 18:47 N 22 16.09 Partly Cloudy SCT040 4 -8 42% -0 76.28 0.0
01 16:47 NE 30 G 41 16.09 Partly Cloudy SCT044 4 -7 45% -1 76.25 0.0
01 15:47 NE 22 G 37 16.09 Partly Cloudy SCT043 SCT050 4 -6 48% -0 76.28 0.0
01 14:46 N 26 G 37 16.09 Overcast SCT035 BKN060 OVC070 3 -5 56% -2 76.28 0.0
01 13:46 NE 31 G 39 16.09 Overcast SCT027 BKN032 OVC070 3 -3 65% -2 76.25 0.0
01 12:46 N 26 16.09 Overcast SCT024 BKN032 OVC050 2 -3 70% -3 76.25 0.0
01 11:46 NE 17 8.05 Light Snow SCT024 BKN034 OVC050 1 -2 81% -3 76.25 0.0
Date Time (edt) Wind (kph) Vis. (km) Weather Sky Cond. Air Dwpt Max. Min. Relative Humidity Wind Chill (°C) Heat Index (°C) altimeter (cm) sea level (mb) 1 hr 3 hr 6 hr
6 hour
Temperature (ºC) Pressure Precipitation (cm)